Time;durP1;ratioP1;P1;durP2;ratioP2;P2;SDS_P1;SDS_P2;PMS_P1;PMS_P2;Temp;Humidity;BMP_temperature;BMP_pressure;BME280_temperature;BME280_humidity;BME280_pressure;Samples;Min_cycle;Max_cycle;Signal;HPM_P1;HPM_P2
2022/03/09 00:01:15;;;;;;;4.97;2.85;;;1.10;70.50;;;;;;5053159;28;20036;-68
2022/03/09 00:03:41;;;;;;;4.53;2.80;;;1.20;70.20;;;;;;5058823;28;20044;-68
2022/03/09 00:06:07;;;;;;;8.52;3.35;;;1.10;70.30;;;;;;5051532;28;20041;-68
2022/03/09 00:08:32;;;;;;;4.78;3.05;;;1.10;70.30;;;;;;5034308;28;20110;-68
2022/03/09 00:10:58;;;;;;;6.20;3.35;;;1.00;70.60;;;;;;5057006;28;20621;-68
2022/03/09 00:13:23;;;;;;;6.50;3.10;;;1.00;70.90;;;;;;5041923;28;20044;-68
2022/03/09 00:15:49;;;;;;;6.13;3.00;;;1.00;70.90;;;;;;5063486;28;20090;-68
2022/03/09 00:18:14;;;;;;;3.63;2.67;;;0.90;71.00;;;;;;5059278;28;20052;-68
2022/03/09 00:20:40;;;;;;;5.18;2.90;;;0.90;71.00;;;;;;5052218;28;20428;-68
2022/03/09 00:23:05;;;;;;;5.03;2.92;;;0.90;71.50;;;;;;5041550;28;20206;-68
2022/03/09 00:25:31;;;;;;;4.70;2.75;;;0.80;71.20;;;;;;5062664;28;20048;-68
2022/03/09 00:27:57;;;;;;;6.95;3.10;;;0.80;71.10;;;;;;5037246;28;20067;-68
2022/03/09 00:30:23;;;;;;;6.63;3.40;;;0.80;71.20;;;;;;5049139;28;20036;-68
2022/03/09 00:32:49;;;;;;;7.50;3.42;;;0.80;71.40;;;;;;5062442;28;20440;-68
2022/03/09 00:35:16;;;;;;;6.00;3.30;;;0.70;71.50;;;;;;5030053;28;20056;-68
2022/03/09 00:37:41;;;;;;;4.03;2.60;;;0.70;71.70;;;;;;5036362;28;20037;-68
2022/03/09 00:40:08;;;;;;;7.78;3.67;;;0.60;71.90;;;;;;5048981;28;20123;-68
2022/03/09 00:42:38;;;;;;;7.22;3.33;;;0.60;72.20;;;;;;5058831;28;20040;-68
2022/03/09 00:45:04;;;;;;;6.13;3.35;;;0.50;72.40;;;;;;5060208;28;20032;-68
2022/03/09 00:47:30;;;;;;;6.05;3.47;;;0.40;72.60;;;;;;5043974;28;20406;-68
2022/03/09 00:49:56;;;;;;;4.65;2.92;;;0.40;73.00;;;;;;5047537;28;20105;-67
2022/03/09 00:52:21;;;;;;;9.18;3.70;;;0.40;73.50;;;;;;5043756;28;20075;-68
2022/03/09 00:54:47;;;;;;;5.80;2.95;;;0.40;73.30;;;;;;5065865;28;20750;-68
2022/03/09 00:57:13;;;;;;;7.22;3.40;;;0.40;73.50;;;;;;5048843;28;20112;-67
2022/03/09 00:59:39;;;;;;;6.32;3.20;;;0.40;73.70;;;;;;5056925;28;20135;-68
2022/03/09 01:02:05;;;;;;;5.85;3.42;;;0.40;73.50;;;;;;5051848;28;20043;-68
2022/03/09 01:04:30;;;;;;;5.32;3.47;;;0.40;73.50;;;;;;5044082;28;20422;-68
2022/03/09 01:06:56;;;;;;;4.75;3.03;;;0.40;73.30;;;;;;5056107;28;20837;-68
2022/03/09 01:09:21;;;;;;;11.30;3.30;;;0.40;73.40;;;;;;5049276;28;20037;-67
2022/03/09 01:11:47;;;;;;;6.03;3.60;;;0.40;73.70;;;;;;5058824;28;20048;-68
2022/03/09 01:14:13;;;;;;;5.85;3.42;;;0.30;73.70;;;;;;5063550;28;20033;-68
2022/03/09 01:16:38;;;;;;;7.47;3.00;;;0.40;73.90;;;;;;5055053;28;20143;-68
2022/03/09 01:19:04;;;;;;;8.55;3.70;;;0.40;73.70;;;;;;5058252;28;20047;-68
2022/03/09 01:21:30;;;;;;;5.05;3.50;;;0.40;73.60;;;;;;5059181;28;20037;-67
2022/03/09 01:23:56;;;;;;;6.18;3.10;;;0.40;73.80;;;;;;5052878;28;20064;-68
2022/03/09 01:26:21;;;;;;;4.97;3.33;;;0.50;73.70;;;;;;5048139;28;20110;-67
2022/03/09 01:28:47;;;;;;;6.85;3.08;;;0.50;73.60;;;;;;5047166;28;20129;-67
2022/03/09 01:31:12;;;;;;;5.72;3.75;;;0.50;73.50;;;;;;5057717;28;20033;-67
2022/03/09 01:33:38;;;;;;;5.10;3.47;;;0.50;73.30;;;;;;5046923;28;20037;-67
2022/03/09 01:36:04;;;;;;;6.68;3.75;;;0.50;73.60;;;;;;5052554;28;20144;-67
2022/03/09 01:38:29;;;;;;;6.70;3.80;;;0.40;73.80;;;;;;5052484;28;20388;-67
2022/03/09 01:40:55;;;;;;;6.70;3.67;;;0.40;74.00;;;;;;5048775;28;20033;-67
2022/03/09 01:43:20;;;;;;;5.28;3.15;;;0.40;74.70;;;;;;5059707;28;20469;-67
2022/03/09 01:45:46;;;;;;;11.48;4.28;;;0.40;74.20;;;;;;5052265;28;20119;-67
2022/03/09 01:48:12;;;;;;;6.40;3.70;;;0.30;74.40;;;;;;5055643;28;20086;-67
2022/03/09 01:50:37;;;;;;;5.50;3.60;;;0.30;74.60;;;;;;5061640;28;20041;-67
2022/03/09 01:53:03;;;;;;;8.43;3.85;;;0.30;74.70;;;;;;5053592;28;20116;-68
2022/03/09 01:55:29;;;;;;;8.10;4.05;;;0.30;74.50;;;;;;5059542;28;20040;-67
2022/03/09 01:57:55;;;;;;;8.93;4.20;;;0.30;74.80;;;;;;5033198;28;20051;-67
2022/03/09 02:00:21;;;;;;;7.05;3.80;;;0.30;74.80;;;;;;5052615;28;20521;-67
2022/03/09 02:02:47;;;;;;;8.70;3.78;;;0.30;74.80;;;;;;5049960;28;20040;-68
2022/03/09 02:05:15;;;;;;;6.65;3.70;;;0.30;75.10;;;;;;5056878;28;20337;-67
2022/03/09 02:10:25;;;;;;;11.27;4.07;;;0.40;75.10;;;;;;5054312;28;20142;-67
2022/03/09 02:12:51;;;;;;;5.97;3.80;;;0.30;74.90;;;;;;5062769;28;20142;-67
2022/03/09 02:15:16;;;;;;;7.28;4.05;;;0.30;75.10;;;;;;5066085;28;20044;-67
2022/03/09 02:17:42;;;;;;;7.25;4.00;;;0.30;75.10;;;;;;5061269;28;20083;-67
2022/03/09 02:20:08;;;;;;;10.43;5.10;;;0.20;75.30;;;;;;5054484;28;20520;-67
2022/03/09 02:22:43;;;;;;;9.43;4.35;;;0.10;75.40;;;;;;5052531;28;20093;-68
2022/03/09 02:25:12;;;;;;;6.70;4.20;;;0.00;75.90;;;;;;5059398;28;20055;-67
2022/03/09 02:27:39;;;;;;;6.07;3.60;;;-0.10;76.40;;;;;;5064253;28;20037;-67
2022/03/09 02:30:06;;;;;;;9.45;4.68;;;-0.20;76.70;;;;;;5056718;28;20042;-67
2022/03/09 02:32:32;;;;;;;7.00;4.18;;;-0.20;77.20;;;;;;5056720;28;20061;-67
2022/03/09 02:34:58;;;;;;;9.20;4.63;;;-0.20;77.50;;;;;;5043630;28;20106;-67
2022/03/09 02:37:23;;;;;;;7.60;4.70;;;-0.20;77.20;;;;;;5038975;28;20033;-67
2022/03/09 02:39:49;;;;;;;11.88;4.93;;;-0.20;77.40;;;;;;5059810;28;20072;-67
2022/03/09 02:42:15;;;;;;;9.13;4.75;;;-0.20;77.40;;;;;;5031125;28;20052;-68
2022/03/09 02:44:41;;;;;;;8.15;4.55;;;-0.20;78.00;;;;;;5062294;28;20371;-68
2022/03/09 02:47:07;;;;;;;7.93;4.55;;;-0.20;77.40;;;;;;5058737;28;20405;-68
2022/03/09 02:49:33;;;;;;;9.35;4.80;;;-0.20;77.50;;;;;;5033721;28;20052;-68
2022/03/09 02:51:59;;;;;;;10.00;4.82;;;-0.30;77.40;;;;;;5034186;28;20048;-67
2022/03/09 02:54:24;;;;;;;11.05;5.65;;;-0.40;77.60;;;;;;5062369;28;20063;-67
2022/03/09 02:56:50;;;;;;;11.25;5.43;;;-0.40;78.00;;;;;;5054175;28;20044;-67
2022/03/09 02:59:15;;;;;;;9.15;5.05;;;-0.50;78.50;;;;;;5052767;28;20041;-67
2022/03/09 03:01:41;;;;;;;7.75;4.70;;;-0.60;78.90;;;;;;5035540;28;20036;-68
2022/03/09 03:04:07;;;;;;;9.00;4.82;;;-0.60;79.00;;;;;;5044779;28;20041;-67
2022/03/09 03:06:32;;;;;;;10.40;5.13;;;-0.60;79.40;;;;;;5055878;28;20036;-68
2022/03/09 03:08:58;;;;;;;9.70;4.80;;;-0.70;79.10;;;;;;5038943;28;20045;-68
2022/03/09 03:11:23;;;;;;;10.95;5.53;;;-0.70;80.00;;;;;;5040360;28;20110;-68
2022/03/09 03:13:49;;;;;;;9.73;4.88;;;-0.70;79.90;;;;;;5042963;28;20457;-68
2022/03/09 03:16:16;;;;;;;13.20;5.22;;;-0.80;79.90;;;;;;5063724;28;20067;-68
2022/03/09 03:18:41;;;;;;;10.90;5.05;;;-0.80;79.90;;;;;;5066645;28;20457;-67
2022/03/09 03:21:08;;;;;;;9.20;5.00;;;-0.90;80.10;;;;;;5062095;28;20123;-67
2022/03/09 03:23:35;;;;;;;9.45;5.43;;;-1.00;80.60;;;;;;5042355;28;20960;-68
2022/03/09 03:26:02;;;;;;;12.70;5.30;;;-1.10;80.70;;;;;;5054659;28;22748;-67
2022/03/09 03:28:29;;;;;;;9.38;4.93;;;-1.00;81.20;;;;;;5049293;28;20067;-68
2022/03/09 03:30:55;;;;;;;13.40;5.32;;;-1.10;82.00;;;;;;5058977;28;20033;-67
2022/03/09 03:33:21;;;;;;;12.00;5.88;;;-1.00;83.00;;;;;;5064971;28;20032;-67
2022/03/09 03:35:48;;;;;;;11.68;5.30;;;-1.10;83.20;;;;;;5052122;28;20071;-67
2022/03/09 03:38:14;;;;;;;14.68;6.00;;;-1.00;83.50;;;;;;5053692;28;20507;-67
2022/03/09 03:40:39;;;;;;;8.38;4.80;;;-1.00;83.30;;;;;;5051449;28;20063;-68
2022/03/09 03:43:06;;;;;;;10.45;5.30;;;-1.00;82.80;;;;;;5036462;28;20056;-67
2022/03/09 03:45:32;;;;;;;9.90;5.63;;;-1.00;82.30;;;;;;5060422;28;20028;-67
2022/03/09 03:47:57;;;;;;;11.90;5.70;;;-1.00;82.30;;;;;;5062120;28;20036;-67
2022/03/09 03:50:23;;;;;;;9.75;5.13;;;-0.90;82.20;;;;;;5036066;28;20051;-67
2022/03/09 03:52:49;;;;;;;9.38;4.72;;;-0.80;82.60;;;;;;5031123;28;20033;-67
2022/03/09 03:55:15;;;;;;;10.05;5.28;;;-0.70;82.40;;;;;;5048392;28;20106;-67
2022/03/09 03:57:40;;;;;;;11.27;6.00;;;-0.60;82.00;;;;;;5033567;28;20084;-67
2022/03/09 04:00:07;;;;;;;9.68;5.65;;;-0.60;81.80;;;;;;5055371;28;20052;-67
2022/03/09 04:02:33;;;;;;;12.73;6.10;;;-0.60;81.90;;;;;;5052394;28;20158;-67
2022/03/09 04:04:59;;;;;;;9.80;5.03;;;-0.50;81.50;;;;;;5064419;28;20048;-67
2022/03/09 04:07:24;;;;;;;11.25;5.25;;;-0.50;81.60;;;;;;5058667;28;20094;-67
2022/03/09 04:09:50;;;;;;;10.40;5.05;;;-0.50;81.70;;;;;;5057446;28;20128;-67
2022/03/09 04:12:15;;;;;;;9.63;5.00;;;-0.60;81.50;;;;;;5042318;28;20036;-67
2022/03/09 04:14:41;;;;;;;12.00;5.60;;;-0.60;81.70;;;;;;5066756;28;20044;-67
2022/03/09 04:17:07;;;;;;;11.93;5.47;;;-0.60;81.60;;;;;;5055820;28;20091;-67
2022/03/09 04:19:32;;;;;;;11.43;5.50;;;-0.70;81.60;;;;;;5056742;28;20055;-67
2022/03/09 04:21:58;;;;;;;11.77;5.32;;;-0.70;81.80;;;;;;5052555;28;20131;-67
2022/03/09 04:24:24;;;;;;;9.13;5.13;;;-0.70;82.20;;;;;;5054774;28;20131;-67
2022/03/09 04:26:49;;;;;;;11.70;5.00;;;-0.70;82.20;;;;;;5056517;28;20060;-67
2022/03/09 04:29:15;;;;;;;8.27;4.80;;;-0.70;82.20;;;;;;5032705;28;20044;-67
2022/03/09 04:31:40;;;;;;;11.35;5.78;;;-0.80;82.10;;;;;;5049243;28;20041;-67
2022/03/09 04:34:06;;;;;;;10.10;5.05;;;-0.80;82.10;;;;;;5059134;28;20043;-67
2022/03/09 04:36:32;;;;;;;10.30;5.45;;;-0.90;82.40;;;;;;5043143;28;20043;-67
2022/03/09 04:38:58;;;;;;;13.45;5.85;;;-0.90;83.00;;;;;;5061414;28;20440;-67
2022/03/09 04:41:23;;;;;;;12.13;5.53;;;-0.90;84.10;;;;;;5042044;28;20062;-67
2022/03/09 04:43:49;;;;;;;11.10;5.22;;;-0.90;83.00;;;;;;5053811;28;20045;-67
2022/03/09 04:46:16;;;;;;;9.75;6.10;;;-0.80;83.20;;;;;;5054055;28;20044;-66
2022/03/09 04:48:43;;;;;;;12.00;5.47;;;-0.80;83.50;;;;;;5058193;28;20037;-67
2022/03/09 04:51:08;;;;;;;15.38;6.43;;;-0.70;83.20;;;;;;5057873;28;20044;-67
2022/03/09 04:53:34;;;;;;;10.85;5.70;;;-0.60;83.00;;;;;;5054635;28;20033;-66
2022/03/09 04:55:59;;;;;;;12.15;6.28;;;-0.70;82.60;;;;;;5066514;28;20032;-67
2022/03/09 04:58:25;;;;;;;10.65;5.28;;;-0.70;83.10;;;;;;5065726;28;20041;-67
2022/03/09 05:00:51;;;;;;;12.23;5.88;;;-0.60;83.20;;;;;;5055286;28;20047;-66
2022/03/09 05:03:17;;;;;;;12.48;5.40;;;-0.60;83.30;;;;;;5050152;28;20043;-67
2022/03/09 05:05:42;;;;;;;12.98;5.82;;;-0.70;83.00;;;;;;5054156;28;20127;-67
2022/03/09 05:08:09;;;;;;;9.13;5.47;;;-0.70;83.00;;;;;;5046127;28;20087;-66
2022/03/09 05:10:35;;;;;;;10.52;5.57;;;-0.70;83.50;;;;;;5057542;28;20036;-67
2022/03/09 05:13:01;;;;;;;10.50;5.75;;;-0.70;83.40;;;;;;5063502;28;20707;-66
2022/03/09 05:15:27;;;;;;;10.10;6.00;;;-0.70;83.30;;;;;;5048861;28;20041;-67
2022/03/09 05:17:53;;;;;;;10.88;5.53;;;-0.70;83.30;;;;;;5041404;28;20063;-67
2022/03/09 05:20:20;;;;;;;12.10;5.88;;;-0.70;83.60;;;;;;5056835;28;20123;-66
2022/03/09 05:22:46;;;;;;;10.25;6.30;;;-0.70;83.50;;;;;;5043432;28;20445;-66
2022/03/09 05:25:12;;;;;;;10.88;5.85;;;-0.70;83.30;;;;;;5057828;28;20041;-67
2022/03/09 05:27:38;;;;;;;10.68;5.35;;;-0.80;83.60;;;;;;5052406;28;20182;-66
2022/03/09 05:30:04;;;;;;;12.80;6.43;;;-0.80;84.20;;;;;;5055090;28;20128;-66
2022/03/09 05:32:30;;;;;;;11.75;5.45;;;-0.70;83.50;;;;;;5054197;28;20040;-66
2022/03/09 05:34:55;;;;;;;11.23;5.65;;;-0.80;83.90;;;;;;5056179;28;20361;-66
2022/03/09 05:37:22;;;;;;;9.90;6.13;;;-0.80;83.80;;;;;;5059499;28;20033;-66
2022/03/09 05:39:48;;;;;;;10.23;5.72;;;-0.80;84.10;;;;;;5062012;28;20045;-66
2022/03/09 05:42:14;;;;;;;11.70;5.93;;;-0.90;83.70;;;;;;5066010;28;20378;-66
2022/03/09 05:44:39;;;;;;;12.68;6.18;;;-0.80;84.10;;;;;;5047711;28;20461;-67
2022/03/09 05:47:05;;;;;;;10.82;6.05;;;-0.80;84.50;;;;;;5051582;28;20041;-66
2022/03/09 05:49:31;;;;;;;9.80;5.93;;;-0.90;84.30;;;;;;5048961;28;20037;-66
2022/03/09 05:51:57;;;;;;;14.57;6.55;;;-0.90;84.30;;;;;;5048345;28;20439;-66
2022/03/09 05:54:22;;;;;;;11.82;6.13;;;-0.90;84.70;;;;;;5057350;28;20044;-67
2022/03/09 05:56:48;;;;;;;13.32;6.53;;;-0.90;84.90;;;;;;5054053;28;20036;-67
2022/03/09 05:59:13;;;;;;;12.68;6.00;;;-0.90;84.60;;;;;;5054441;28;20115;-67
2022/03/09 06:01:39;;;;;;;13.25;5.47;;;-1.00;84.20;;;;;;5049765;28;20040;-67
2022/03/09 06:04:05;;;;;;;11.30;5.88;;;-1.00;84.30;;;;;;5044739;28;20037;-67
2022/03/09 06:06:31;;;;;;;11.73;6.82;;;-1.10;84.30;;;;;;5055778;28;20037;-66
2022/03/09 06:08:57;;;;;;;16.27;7.30;;;-1.00;84.60;;;;;;5053234;28;20487;-66
2022/03/09 06:11:23;;;;;;;10.65;6.22;;;-1.10;84.60;;;;;;5073866;28;20044;-66
2022/03/09 06:13:48;;;;;;;9.57;5.63;;;-1.00;85.20;;;;;;5056219;28;20392;-66
2022/03/09 06:16:14;;;;;;;11.00;6.00;;;-1.10;84.80;;;;;;5065999;28;20051;-66
2022/03/09 06:18:39;;;;;;;9.98;5.90;;;-1.10;85.00;;;;;;5055658;28;20090;-66
2022/03/09 06:21:05;;;;;;;11.07;6.22;;;-1.10;85.10;;;;;;5068431;28;20049;-68
2022/03/09 06:23:31;;;;;;;10.25;5.82;;;-1.10;85.50;;;;;;5038719;28;20120;-68
2022/03/09 06:25:56;;;;;;;13.20;6.75;;;-1.00;85.90;;;;;;5038908;28;20522;-66
2022/03/09 06:28:23;;;;;;;12.73;6.30;;;-0.90;85.90;;;;;;5058180;28;20048;-66
2022/03/09 06:30:49;;;;;;;11.60;5.93;;;-0.90;85.50;;;;;;5061722;28;20033;-67
2022/03/09 06:33:14;;;;;;;14.05;6.57;;;-0.90;85.40;;;;;;5055553;28;20037;-67
2022/03/09 06:35:41;;;;;;;13.25;6.80;;;-0.90;85.50;;;;;;5040466;28;20033;-66
2022/03/09 06:38:06;;;;;;;12.10;6.95;;;-0.80;85.40;;;;;;5058685;28;20071;-65
2022/03/09 06:40:32;;;;;;;14.57;6.57;;;-0.70;85.70;;;;;;5070142;28;20068;-67
2022/03/09 06:42:59;;;;;;;13.38;6.18;;;-0.60;85.50;;;;;;5072415;28;20034;-67
2022/03/09 06:45:26;;;;;;;10.75;6.75;;;-0.50;85.50;;;;;;5059986;28;20051;-66
2022/03/09 06:47:52;;;;;;;12.82;6.55;;;-0.30;85.50;;;;;;5055043;28;20067;-67
2022/03/09 06:50:18;;;;;;;12.85;5.82;;;-0.20;85.30;;;;;;5044211;28;20045;-67
2022/03/09 06:52:45;;;;;;;14.77;6.78;;;0.00;85.30;;;;;;5056484;28;20049;-66
2022/03/09 06:55:12;;;;;;;13.82;7.22;;;0.10;85.10;;;;;;5035525;28;20036;-66
2022/03/09 06:57:39;;;;;;;14.10;6.82;;;0.20;84.70;;;;;;5063948;28;20068;-65
2022/03/09 07:00:14;;;;;;;13.10;6.78;;;0.30;84.20;;;;;;5058782;28;20075;-66
2022/03/09 07:02:40;;;;;;;12.48;6.72;;;0.40;83.70;;;;;;5062036;28;20127;-67
2022/03/09 07:05:07;;;;;;;12.77;6.53;;;0.60;83.50;;;;;;5050952;28;20522;-66
2022/03/09 07:07:33;;;;;;;11.30;6.47;;;0.80;83.20;;;;;;5044447;28;20044;-66
2022/03/09 07:09:59;;;;;;;11.65;6.68;;;1.00;82.60;;;;;;5053350;28;20123;-67
2022/03/09 07:12:25;;;;;;;13.15;6.63;;;1.20;82.00;;;;;;5071636;28;20123;-67
2022/03/09 07:14:51;;;;;;;11.82;6.95;;;1.40;81.20;;;;;;5069572;28;20428;-67
2022/03/09 07:17:17;;;;;;;13.63;6.70;;;1.70;81.50;;;;;;5055156;28;20073;-67
2022/03/09 07:19:42;;;;;;;10.95;6.55;;;2.10;81.30;;;;;;5047939;28;20530;-67
2022/03/09 07:22:08;;;;;;;13.95;7.22;;;2.30;79.60;;;;;;5050071;28;20037;-67
2022/03/09 07:24:34;;;;;;;10.88;6.90;;;2.60;78.70;;;;;;5049034;28;20544;-67
2022/03/09 07:27:00;;;;;;;10.75;6.53;;;3.00;78.70;;;;;;5037361;28;20492;-67
2022/03/09 07:29:26;;;;;;;13.55;7.22;;;3.20;78.10;;;;;;5061175;28;20048;-68
2022/03/09 07:31:52;;;;;;;11.43;7.00;;;3.50;75.70;;;;;;5041320;28;20033;-67
2022/03/09 07:34:19;;;;;;;12.88;6.75;;;3.70;75.20;;;;;;5058554;28;20098;-67
2022/03/09 07:36:44;;;;;;;13.07;7.07;;;3.90;75.10;;;;;;5059436;28;20051;-67
2022/03/09 07:39:10;;;;;;;12.50;6.70;;;4.20;73.30;;;;;;5058185;28;20396;-68
2022/03/09 07:41:36;;;;;;;13.68;6.55;;;4.40;72.50;;;;;;5058937;28;20055;-67
2022/03/09 07:44:01;;;;;;;12.57;6.93;;;4.40;67.30;;;;;;5053216;28;20473;-68
2022/03/09 07:46:27;;;;;;;12.73;7.32;;;4.50;70.40;;;;;;5052457;28;20041;-67
2022/03/09 07:48:52;;;;;;;14.50;7.60;;;4.60;70.00;;;;;;5051201;28;20400;-68
2022/03/09 07:51:18;;;;;;;12.40;7.38;;;4.60;70.50;;;;;;5052567;28;20076;-68
2022/03/09 07:53:45;;;;;;;13.10;6.78;;;4.50;70.80;;;;;;5057669;28;20041;-68
2022/03/09 07:56:11;;;;;;;13.05;7.18;;;4.50;68.80;;;;;;5055965;28;20556;-68
2022/03/09 07:58:37;;;;;;;11.75;7.90;;;4.40;69.20;;;;;;5055462;28;20368;-67
2022/03/09 08:01:03;;;;;;;10.82;6.88;;;4.30;68.30;;;;;;5063118;28;20052;-68
2022/03/09 08:03:28;;;;;;;12.32;6.30;;;4.20;67.60;;;;;;5060656;28;20037;-67
2022/03/09 08:05:54;;;;;;;10.18;6.50;;;4.30;66.30;;;;;;5055877;28;20055;-69
2022/03/09 08:08:20;;;;;;;10.60;6.60;;;4.40;66.80;;;;;;5038086;28;20045;-66
2022/03/09 08:10:45;;;;;;;12.38;6.90;;;4.60;67.00;;;;;;5060580;28;20037;-68
2022/03/09 08:13:11;;;;;;;11.73;7.25;;;4.80;66.20;;;;;;5058637;28;20135;-68
2022/03/09 08:15:37;;;;;;;12.75;6.88;;;5.00;65.30;;;;;;5054936;28;20036;-68
2022/03/09 08:18:03;;;;;;;12.82;7.10;;;5.10;64.20;;;;;;5053397;28;20115;-68
2022/03/09 08:20:29;;;;;;;10.15;7.00;;;5.10;65.30;;;;;;5031927;28;20198;-68
2022/03/09 08:22:54;;;;;;;11.07;6.57;;;5.10;66.30;;;;;;5048156;28;20442;-68
2022/03/09 08:25:20;;;;;;;12.38;7.07;;;5.10;66.70;;;;;;5060173;28;20460;-67
2022/03/09 08:27:46;;;;;;;10.77;6.72;;;5.00;66.30;;;;;;5064891;28;20045;-67
2022/03/09 08:30:12;;;;;;;11.77;7.75;;;5.00;66.80;;;;;;5065110;28;20457;-66
2022/03/09 08:32:37;;;;;;;11.65;7.15;;;5.10;66.90;;;;;;5046887;28;20033;-68
2022/03/09 08:35:04;;;;;;;12.85;7.30;;;5.00;66.60;;;;;;5041419;28;20033;-67
2022/03/09 08:37:29;;;;;;;11.77;7.03;;;5.10;66.30;;;;;;5061680;28;20032;-68
2022/03/09 08:39:55;;;;;;;10.38;6.30;;;5.10;65.80;;;;;;5067019;28;20488;-68
2022/03/09 08:42:21;;;;;;;12.90;6.75;;;5.10;65.30;;;;;;5032577;28;20043;-67
2022/03/09 08:44:47;;;;;;;11.20;7.05;;;5.10;65.30;;;;;;5050811;28;20472;-66
2022/03/09 08:47:13;;;;;;;11.82;6.57;;;5.30;65.70;;;;;;5049235;28;20052;-67
2022/03/09 08:49:41;;;;;;;10.88;6.82;;;5.30;64.10;;;;;;5050949;28;20798;-67
2022/03/09 08:52:08;;;;;;;11.60;6.20;;;5.30;64.40;;;;;;5043035;28;20087;-68
2022/03/09 08:54:34;;;;;;;13.85;7.07;;;5.40;65.00;;;;;;5048030;28;20106;-67
2022/03/09 08:56:59;;;;;;;13.90;6.63;;;5.50;64.30;;;;;;5032413;28;20473;-66
2022/03/09 08:59:25;;;;;;;9.95;6.45;;;5.70;63.60;;;;;;5051641;28;20094;-67
2022/03/09 09:01:50;;;;;;;14.60;7.72;;;5.90;63.40;;;;;;5050610;28;20036;-68
2022/03/09 09:04:16;;;;;;;13.02;6.53;;;6.10;61.90;;;;;;5046144;28;20044;-67
2022/03/09 09:06:43;;;;;;;10.00;6.45;;;6.30;61.20;;;;;;5052109;28;20128;-70
2022/03/09 09:09:09;;;;;;;10.55;6.13;;;6.20;61.40;;;;;;5059375;28;20040;-66
2022/03/09 09:11:38;;;;;;;12.70;7.00;;;6.40;61.60;;;;;;5058758;28;20123;-70
2022/03/09 09:14:03;;;;;;;9.63;6.15;;;6.40;61.60;;;;;;5064211;28;20056;-67
2022/03/09 09:16:29;;;;;;;12.13;6.57;;;6.50;61.00;;;;;;5047799;28;20096;-68
2022/03/09 09:18:55;;;;;;;10.23;6.80;;;6.60;60.40;;;;;;5059185;28;20037;-68
2022/03/09 09:21:20;;;;;;;11.25;6.03;;;6.60;60.70;;;;;;5049798;28;20500;-67
2022/03/09 09:23:46;;;;;;;12.45;6.57;;;6.80;60.80;;;;;;5042829;28;20036;-68
2022/03/09 09:26:15;;;;;;;11.55;6.07;;;6.90;60.30;;;;;;5051793;28;20037;-66
2022/03/09 09:28:41;;;;;;;12.40;6.18;;;7.00;59.00;;;;;;5060324;28;20041;-68
2022/03/09 09:31:07;;;;;;;12.15;6.88;;;7.10;59.50;;;;;;5061666;28;20100;-66
2022/03/09 09:33:34;;;;;;;12.25;6.60;;;7.20;58.10;;;;;;5056728;28;20033;-67
2022/03/09 09:36:00;;;;;;;11.75;6.13;;;7.20;58.30;;;;;;5047986;28;20156;-68
2022/03/09 09:38:27;;;;;;;12.77;6.80;;;7.30;58.90;;;;;;5055513;28;20076;-68
2022/03/09 09:40:55;;;;;;;12.32;5.95;;;7.40;58.40;;;;;;5053772;28;20048;-68
2022/03/09 09:43:22;;;;;;;11.68;6.03;;;7.50;57.80;;;;;;5054659;28;20398;-70
2022/03/09 09:45:48;;;;;;;10.52;6.30;;;7.60;56.80;;;;;;5060645;28;20530;-68
2022/03/09 09:48:14;;;;;;;15.57;7.07;;;7.60;56.90;;;;;;5040255;28;20037;-68
2022/03/09 09:50:42;;;;;;;13.95;6.75;;;7.60;56.80;;;;;;5067785;28;20036;-68
2022/03/09 09:53:11;;;;;;;11.10;6.78;;;7.80;55.90;;;;;;5053409;28;20079;-68
2022/03/09 09:55:38;;;;;;;10.50;6.43;;;7.90;56.10;;;;;;5048384;28;20128;-67
2022/03/09 09:58:04;;;;;;;11.77;6.28;;;7.90;55.60;;;;;;5058694;28;20139;-68
2022/03/09 10:00:31;;;;;;;10.65;6.72;;;8.10;55.70;;;;;;5033089;28;20044;-67
2022/03/09 10:02:56;;;;;;;10.45;6.47;;;8.20;55.40;;;;;;5032470;28;20090;-68
2022/03/09 10:05:22;;;;;;;10.27;5.72;;;8.40;52.40;;;;;;5050438;28;20037;-69
2022/03/09 10:08:03;;;;;;;11.35;6.60;;;8.50;49.00;;;;;;5029653;28;20114;-66
2022/03/09 10:10:33;;;;;;;9.52;6.07;;;8.60;46.80;;;;;;5055216;28;20044;-69
2022/03/09 10:13:16;;;;;;;12.05;5.88;;;8.60;45.10;;;;;;5069277;28;20041;-67
2022/03/09 10:15:46;;;;;;;12.88;6.32;;;8.70;46.10;;;;;;5045380;28;20083;-68
2022/03/09 10:18:20;;;;;;;9.02;6.07;;;8.80;47.50;;;;;;5047928;28;20132;-67
2022/03/09 10:20:47;;;;;;;9.25;6.20;;;8.80;46.60;;;;;;5050870;28;20041;-67
2022/03/09 10:23:15;;;;;;;10.25;6.00;;;8.80;46.60;;;;;;5049709;28;20041;-67
2022/03/09 10:25:41;;;;;;;12.75;6.15;;;9.00;47.40;;;;;;5051560;28;20087;-65
2022/03/09 10:28:11;;;;;;;11.82;6.30;;;9.10;46.90;;;;;;5056140;28;20033;-66
2022/03/09 10:30:39;;;;;;;12.15;6.75;;;9.20;45.40;;;;;;5052811;28;20406;-69
2022/03/09 10:33:12;;;;;;;11.73;6.70;;;9.20;42.90;;;;;;5052437;28;20032;-67
2022/03/09 10:35:49;;;;;;;11.68;6.55;;;9.20;44.60;;;;;;5035952;28;20041;-68
2022/03/09 10:38:14;;;;;;;11.07;6.35;;;9.20;44.80;;;;;;5032999;28;20049;-69
2022/03/09 10:40:54;;;;;;;9.25;5.82;;;9.30;45.70;;;;;;5069350;28;20350;-67
2022/03/09 10:43:30;;;;;;;10.77;6.30;;;9.40;43.10;;;;;;5055013;28;20099;-67
2022/03/09 10:46:07;;;;;;;11.63;6.28;;;9.40;44.90;;;;;;5064943;28;20032;-68
2022/03/09 10:48:52;;;;;;;12.82;6.65;;;9.50;43.80;;;;;;5054972;28;20028;-67
2022/03/09 10:51:47;;;;;;;10.90;7.00;;;9.50;44.30;;;;;;5053049;28;20045;-68
2022/03/09 10:54:20;;;;;;;10.18;5.97;;;9.60;45.10;;;;;;5050458;28;20076;-67
2022/03/09 10:56:46;;;;;;;11.60;5.90;;;9.70;45.90;;;;;;5050964;28;20535;-66
2022/03/09 10:59:18;;;;;;;11.30;7.13;;;9.70;46.10;;;;;;5052658;28;20472;-69
2022/03/09 11:02:05;;;;;;;10.40;6.43;;;9.70;44.40;;;;;;5053800;28;20045;-68
2022/03/09 11:04:30;;;;;;;11.13;6.75;;;9.60;43.30;;;;;;5071309;28;20052;-67
2022/03/09 11:06:57;;;;;;;12.10;6.30;;;9.60;45.70;;;;;;5044882;28;20041;-68
2022/03/09 11:09:23;;;;;;;11.88;6.70;;;9.70;45.80;;;;;;5067359;28;20039;-66
2022/03/09 11:11:49;;;;;;;9.63;6.97;;;9.80;45.30;;;;;;5059425;28;20084;-67
2022/03/09 11:14:16;;;;;;;10.55;6.32;;;9.80;45.60;;;;;;5061545;28;20119;-67
2022/03/09 11:16:43;;;;;;;12.48;6.88;;;9.80;44.90;;;;;;5055788;28;20065;-69
2022/03/09 11:19:13;;;;;;;11.13;7.00;;;9.80;45.60;;;;;;5048304;28;20053;-67
2022/03/09 11:21:39;;;;;;;11.95;7.10;;;9.80;45.10;;;;;;5055323;28;20068;-68
2022/03/09 11:24:12;;;;;;;10.77;6.43;;;9.80;45.00;;;;;;5058951;28;20033;-69
2022/03/09 11:26:45;;;;;;;9.80;6.78;;;9.90;43.70;;;;;;5037400;28;20043;-68
2022/03/09 11:29:12;;;;;;;12.15;6.25;;;10.00;44.50;;;;;;5063667;28;20090;-67
2022/03/09 11:31:49;;;;;;;12.38;6.70;;;10.10;45.00;;;;;;5052307;28;22594;-66
2022/03/09 11:34:43;;;;;;;10.77;6.63;;;10.10;44.00;;;;;;5055807;28;20124;-71
2022/03/09 11:37:14;;;;;;;11.23;6.50;;;10.20;43.40;;;;;;5053657;28;20037;-68
2022/03/09 11:40:02;;;;;;;10.10;6.40;;;10.20;43.60;;;;;;5052718;28;20472;-67
2022/03/09 11:42:31;;;;;;;13.00;6.32;;;10.20;44.20;;;;;;5049002;28;20061;-67
2022/03/09 11:45:27;;;;;;;9.98;6.15;;;10.20;46.20;;;;;;5059299;28;20071;-69
2022/03/09 11:48:05;;;;;;;11.48;5.80;;;10.20;45.40;;;;;;5049727;28;20084;-68
2022/03/09 11:50:57;;;;;;;13.35;6.90;;;10.30;46.30;;;;;;5052656;28;20036;-67
2022/03/09 11:53:42;;;;;;;11.68;6.80;;;10.30;46.40;;;;;;5040127;28;20126;-66
2022/03/09 11:56:37;;;;;;;11.95;7.47;;;10.40;45.20;;;;;;5050524;28;20041;-69
2022/03/09 11:59:25;;;;;;;8.98;5.88;;;10.50;45.20;;;;;;5032724;28;20431;-70
2022/03/09 12:01:57;;;;;;;9.48;6.63;;;10.50;45.50;;;;;;5051718;28;20045;-74
2022/03/09 12:04:53;;;;;;;9.93;6.45;;;10.50;44.60;;;;;;5051071;28;20140;-67
2022/03/09 12:07:28;;;;;;;10.73;6.90;;;10.40;44.00;;;;;;5047343;28;20040;-67
2022/03/09 12:10:03;;;;;;;10.75;6.40;;;10.60;44.60;;;;;;5050271;28;20068;-67
2022/03/09 12:12:31;;;;;;;10.38;6.10;;;10.70;44.30;;;;;;5033232;28;20102;-68
2022/03/09 12:15:02;;;;;;;10.68;7.03;;;10.60;42.60;;;;;;5054298;28;20455;-68
2022/03/09 12:17:37;;;;;;;12.85;6.32;;;10.70;43.20;;;;;;5055004;28;20147;-66
2022/03/09 12:20:25;;;;;;;12.88;7.32;;;10.70;42.30;;;;;;5048345;28;20048;-70
2022/03/09 12:22:57;;;;;;;10.82;6.47;;;10.80;41.30;;;;;;5053421;28;20037;-67
2022/03/09 12:25:39;;;;;;;9.77;6.88;;;10.80;42.20;;;;;;5050318;28;20032;-67
2022/03/09 12:28:23;;;;;;;13.48;6.82;;;10.90;41.40;;;;;;5041152;28;20161;-68
2022/03/09 12:30:51;;;;;;;11.07;6.55;;;11.00;40.90;;;;;;5069618;28;20044;-70
2022/03/09 12:33:36;;;;;;;11.90;7.22;;;11.10;41.70;;;;;;5054617;28;20480;-68
2022/03/09 12:36:05;;;;;;;12.40;6.93;;;11.30;38.70;;;;;;5058021;28;20083;-67
2022/03/09 12:38:35;;;;;;;10.10;6.63;;;11.30;40.00;;;;;;5047441;28;20116;-67
2022/03/09 12:41:00;;;;;;;9.27;6.82;;;11.40;39.30;;;;;;5052787;28;20036;-73
2022/03/09 12:43:26;;;;;;;10.77;6.90;;;11.50;37.40;;;;;;5056387;28;20467;-67
2022/03/09 12:45:53;;;;;;;13.38;7.00;;;11.40;37.90;;;;;;5064848;28;20036;-68
2022/03/09 12:48:20;;;;;;;12.68;6.78;;;11.50;38.30;;;;;;5058301;28;20457;-67
2022/03/09 12:50:47;;;;;;;10.80;6.72;;;11.50;38.10;;;;;;5059530;28;20165;-69